createdAt,value
2019-04-10T00:01:38.677Z,100.00
2019-04-10T00:04:07.189Z,100.00
2019-04-10T00:06:35.405Z,100.00
2019-04-10T00:09:03.767Z,100.00
2019-04-10T00:14:06.365Z,100.00
2019-04-10T00:19:08.997Z,100.00
2019-04-10T00:21:37.615Z,100.00
2019-04-10T00:26:40.033Z,100.00
2019-04-10T00:29:08.392Z,100.00
2019-04-10T00:31:36.748Z,100.00
2019-04-10T00:34:05.423Z,100.00
2019-04-10T00:36:33.582Z,100.00
2019-04-10T00:41:41.181Z,100.00
2019-04-10T00:44:09.534Z,100.00
2019-04-10T00:46:38.044Z,100.00
2019-04-10T00:49:07.170Z,100.00
2019-04-10T00:51:35.207Z,100.00
2019-04-10T00:54:03.187Z,100.00
2019-04-10T00:56:32.563Z,100.00
2019-04-10T01:01:37.384Z,100.00
2019-04-10T01:04:04.520Z,100.00
2019-04-10T01:06:32.908Z,100.00
2019-04-10T01:09:01.453Z,100.00
2019-04-10T01:11:30.709Z,100.00
2019-04-10T01:16:33.538Z,100.00
2019-04-10T01:21:38.786Z,100.00
2019-04-10T01:24:06.758Z,100.00
2019-04-10T01:26:35.120Z,100.00
2019-04-10T01:29:03.508Z,100.00
2019-04-10T01:31:32.058Z,100.00
2019-04-10T01:34:01.067Z,100.00
2019-04-10T01:36:29.038Z,100.00
2019-04-10T01:38:57.879Z,100.00
2019-04-10T01:41:26.157Z,100.00
2019-04-10T01:43:55.438Z,100.00
2019-04-10T01:46:24.381Z,100.00
2019-04-10T01:48:53.265Z,100.00
2019-04-10T01:51:21.380Z,100.00
2019-04-10T01:53:49.030Z,100.00
2019-04-10T01:58:51.774Z,100.00
2019-04-10T02:01:40.782Z,100.00
2019-04-10T02:04:09.216Z,100.00
2019-04-10T02:06:38.531Z,100.00
2019-04-10T02:11:41.871Z,100.00
2019-04-10T02:14:09.472Z,100.00
2019-04-10T02:16:38.920Z,100.00
2019-04-10T02:19:06.268Z,100.00
2019-04-10T02:21:34.665Z,100.00
2019-04-10T02:26:38.196Z,100.00
2019-04-10T02:29:07.121Z,100.00
2019-04-10T02:34:09.686Z,100.00
2019-04-10T02:36:38.516Z,100.00
2019-04-10T02:39:19.046Z,100.00
2019-04-10T02:41:35.012Z,100.00
2019-04-10T02:44:03.161Z,100.00
2019-04-10T02:46:31.402Z,100.00
2019-04-10T02:49:00.213Z,100.00
2019-04-10T02:51:27.875Z,100.00
2019-04-10T02:53:58.020Z,100.00
2019-04-10T02:56:25.406Z,100.00
2019-04-10T02:58:54.326Z,100.00
2019-04-10T03:01:23.315Z,100.00
2019-04-10T03:03:50.226Z,100.00
2019-04-10T03:11:16.897Z,100.00
2019-04-10T03:16:21.617Z,100.00
2019-04-10T03:21:23.306Z,100.00
2019-04-10T03:26:25.913Z,100.00
2019-04-10T03:31:30.041Z,100.00
2019-04-10T03:34:04.238Z,100.00
2019-04-10T03:39:11.041Z,100.00
2019-04-10T03:41:40.137Z,100.00
2019-04-10T03:46:45.015Z,100.00
2019-04-10T03:49:13.707Z,100.00
2019-04-10T03:51:42.912Z,100.00
2019-04-10T03:54:11.098Z,100.00
2019-04-10T03:56:38.618Z,100.00
2019-04-10T03:59:08.387Z,100.00
2019-04-10T04:01:36.366Z,100.00
2019-04-10T04:04:06.981Z,100.00
2019-04-10T04:06:35.473Z,100.00
2019-04-10T04:09:09.567Z,100.00
2019-04-10T04:11:31.861Z,100.00
2019-04-10T04:14:00.267Z,100.00
2019-04-10T04:16:28.642Z,100.00
2019-04-10T04:18:57.646Z,100.00
2019-04-10T04:21:26.359Z,100.00
2019-04-10T04:26:29.600Z,100.00
2019-04-10T04:28:57.766Z,100.00
2019-04-10T04:31:27.097Z,100.00
2019-04-10T04:33:55.599Z,100.00
2019-04-10T04:36:24.611Z,100.00
2019-04-10T04:38:52.056Z,100.00
2019-04-10T04:41:20.566Z,100.00
2019-04-10T04:43:50.122Z,100.00
2019-04-10T04:46:18.380Z,100.00
2019-04-10T04:48:45.798Z,100.00
2019-04-10T04:51:15.354Z,100.00
2019-04-10T04:53:42.701Z,100.00
2019-04-10T04:56:11.514Z,100.00
2019-04-10T05:01:14.690Z,100.00
2019-04-10T05:03:42.199Z,100.00
2019-04-10T05:06:10.840Z,100.00
2019-04-10T05:08:39.931Z,100.00
2019-04-10T05:11:07.596Z,100.00
2019-04-10T05:13:35.993Z,100.00
2019-04-10T05:16:04.332Z,100.00
2019-04-10T05:18:32.733Z,100.00
2019-04-10T05:21:01.077Z,99.79
2019-04-10T05:23:33.043Z,100.00
2019-04-10T05:28:36.109Z,100.00
2019-04-10T05:31:03.239Z,98.82
2019-04-10T05:33:31.670Z,99.93
2019-04-10T05:36:00.021Z,100.00
2019-04-10T05:41:04.697Z,98.75
2019-04-10T05:43:32.035Z,100.00
2019-04-10T05:46:00.456Z,100.00
2019-04-10T05:48:28.799Z,100.00
2019-04-10T05:51:03.839Z,100.00
2019-04-10T05:56:01.861Z,99.06
2019-04-10T05:58:31.422Z,99.74
2019-04-10T06:00:58.833Z,98.90
2019-04-10T06:03:26.941Z,98.41
2019-04-10T06:05:56.335Z,98.92
2019-04-10T06:11:00.974Z,99.10
2019-04-10T06:13:29.312Z,99.71
2019-04-10T06:15:57.747Z,98.79
2019-04-10T06:18:27.070Z,100.00
2019-04-10T06:20:54.690Z,99.11
2019-04-10T06:25:58.454Z,99.68
2019-04-10T06:28:27.906Z,96.65
2019-04-10T06:30:55.001Z,95.66
2019-04-10T06:33:24.152Z,97.35
2019-04-10T06:35:53.079Z,95.18
2019-04-10T06:38:22.914Z,95.28
2019-04-10T06:40:50.345Z,96.52
2019-04-10T06:43:19.118Z,92.12
2019-04-10T06:45:48.218Z,93.31
2019-04-10T06:48:15.600Z,93.40
2019-04-10T06:50:44.766Z,91.87
2019-04-10T06:53:15.780Z,91.82
2019-04-10T06:55:42.596Z,91.69
2019-04-10T06:58:10.135Z,90.94
2019-04-10T07:00:39.063Z,89.94
2019-04-10T07:03:06.911Z,90.62
2019-04-10T07:05:41.412Z,89.87
2019-04-10T07:08:12.448Z,91.98
2019-04-10T07:10:44.781Z,90.51
2019-04-10T07:13:04.260Z,90.41
2019-04-10T07:18:03.288Z,85.74
2019-04-10T07:20:31.700Z,88.36
2019-04-10T07:23:00.048Z,85.34
2019-04-10T07:25:28.406Z,85.70
2019-04-10T07:27:56.831Z,84.10
2019-04-10T07:32:59.438Z,82.78
2019-04-10T07:38:02.125Z,79.13
2019-04-10T07:43:06.268Z,82.97
2019-04-10T07:45:35.413Z,80.85
2019-04-10T07:48:03.116Z,79.64
2019-04-10T07:50:31.504Z,83.04
2019-04-10T07:52:59.901Z,79.42
2019-04-10T07:55:29.308Z,81.62
2019-04-10T07:57:59.263Z,81.81
2019-04-10T08:03:01.224Z,84.25
2019-04-10T08:05:29.735Z,84.34
2019-04-10T08:07:59.057Z,83.44
2019-04-10T08:13:00.788Z,82.79
2019-04-10T08:15:29.512Z,82.25
2019-04-10T08:20:32.707Z,81.72
2019-04-10T08:25:35.294Z,80.77
2019-04-10T08:28:03.078Z,78.56
2019-04-10T08:30:32.146Z,77.76
2019-04-10T08:33:01.607Z,73.72
2019-04-10T08:38:03.334Z,77.76
2019-04-10T08:40:30.772Z,76.70
2019-04-10T08:50:42.035Z,73.65
2019-04-10T08:53:10.399Z,71.33
2019-04-10T08:55:39.959Z,71.33
2019-04-10T08:58:08.235Z,75.12
2019-04-10T09:00:36.415Z,74.05
2019-04-10T09:05:40.478Z,77.87
2019-04-10T09:10:43.146Z,76.17
2019-04-10T09:13:12.470Z,77.34
2019-04-10T09:15:40.250Z,79.74
2019-04-10T09:18:11.088Z,76.97
2019-04-10T09:23:36.260Z,74.96
2019-04-10T09:25:39.583Z,72.01
2019-04-10T09:28:08.501Z,71.23
2019-04-10T09:30:37.240Z,72.19
2019-04-10T09:33:16.043Z,69.71
2019-04-10T09:38:10.570Z,68.34
2019-04-10T09:40:38.833Z,68.17
2019-04-10T09:43:07.371Z,70.81
2019-04-10T09:48:10.634Z,68.79
2019-04-10T09:50:38.275Z,66.78
2019-04-10T09:53:06.648Z,69.75
2019-04-10T09:55:35.025Z,69.18
2019-04-10T09:58:03.468Z,66.95
2019-04-10T10:00:31.906Z,66.15
2019-04-10T10:03:01.516Z,71.32
2019-04-10T10:05:30.586Z,73.63
2019-04-10T10:07:58.052Z,75.84
2019-04-10T10:10:26.236Z,74.98
2019-04-10T10:18:05.379Z,73.39
2019-04-10T10:20:35.607Z,71.37
2019-04-10T10:23:03.340Z,71.40
2019-04-10T10:25:31.409Z,75.01
2019-04-10T10:28:00.116Z,75.92
2019-04-10T10:30:28.456Z,76.62
2019-04-10T10:32:57.260Z,74.93
2019-04-10T10:37:59.409Z,73.14
2019-04-10T10:40:27.817Z,74.26
2019-04-10T10:45:31.129Z,72.03
2019-04-10T10:47:59.320Z,72.84
2019-04-10T10:50:28.916Z,71.67
2019-04-10T10:52:56.080Z,69.40
2019-04-10T10:57:59.670Z,69.79
2019-04-10T11:00:27.981Z,71.36
2019-04-10T11:05:31.852Z,69.50
2019-04-10T11:07:59.883Z,69.71
2019-04-10T11:10:27.659Z,72.47
2019-04-10T11:12:55.858Z,74.27
2019-04-10T11:17:58.437Z,74.34
2019-04-10T11:23:01.778Z,70.25
2019-04-10T11:25:30.081Z,70.45
2019-04-10T11:28:00.078Z,70.91
2019-04-10T11:30:28.609Z,70.17
2019-04-10T11:32:55.688Z,69.48
2019-04-10T11:38:02.933Z,68.99
2019-04-10T11:43:05.333Z,68.73
2019-04-10T11:48:10.459Z,68.89
2019-04-10T11:50:38.796Z,69.95
2019-04-10T11:53:10.308Z,71.42
2019-04-10T12:00:47.444Z,72.00
2019-04-10T12:03:10.043Z,71.91
2019-04-10T12:05:36.679Z,72.56
2019-04-10T12:08:28.044Z,71.17
2019-04-10T12:15:38.635Z,69.43
2019-04-10T12:18:06.650Z,67.83
2019-04-10T12:25:43.543Z,67.46
2019-04-10T12:28:12.011Z,67.70
2019-04-10T12:30:41.592Z,69.21
2019-04-10T12:33:09.571Z,70.44
2019-04-10T12:38:13.228Z,74.07
2019-04-10T12:40:40.486Z,70.65
2019-04-10T12:43:08.531Z,69.58
2019-04-10T12:48:10.825Z,69.69
2019-04-10T12:50:39.194Z,70.55
2019-04-10T12:53:07.636Z,69.78
2019-04-10T12:58:17.257Z,68.28
2019-04-10T13:00:42.886Z,68.21
2019-04-10T13:03:11.170Z,68.39
2019-04-10T13:05:39.266Z,69.64
2019-04-10T13:15:51.792Z,68.04
2019-04-10T13:18:18.891Z,66.99
2019-04-10T13:20:48.349Z,66.48
2019-04-10T13:25:58.141Z,67.42
2019-04-10T13:30:57.804Z,67.73
2019-04-10T13:33:24.608Z,66.57
2019-04-10T13:35:53.361Z,66.04
2019-04-10T13:38:26.607Z,67.07
2019-04-10T13:40:50.165Z,66.75
2019-04-10T13:43:18.000Z,66.32
2019-04-10T13:45:46.164Z,67.19
2019-04-10T13:48:14.589Z,66.15
2019-04-10T13:53:17.537Z,63.67
2019-04-10T13:58:22.000Z,60.59
2019-04-10T14:00:52.116Z,60.60
2019-04-10T14:05:57.033Z,61.20
2019-04-10T14:13:32.965Z,62.10
2019-04-10T14:16:01.324Z,62.64
2019-04-10T14:18:35.252Z,63.68
2019-04-10T14:21:09.724Z,62.55
2019-04-10T14:28:40.912Z,64.99
2019-04-10T14:33:49.350Z,64.68
2019-04-10T14:36:18.012Z,64.72
2019-04-10T14:38:46.084Z,64.20
2019-04-10T14:41:14.465Z,65.33
2019-04-10T14:43:45.122Z,63.82
2019-04-10T14:48:46.711Z,64.53
2019-04-10T14:51:14.959Z,67.40
2019-04-10T14:53:44.250Z,67.30
2019-04-10T14:56:15.588Z,67.12
2019-04-10T14:58:42.952Z,67.33
2019-04-10T15:01:11.554Z,67.90
2019-04-10T15:03:40.387Z,67.60
2019-04-10T15:06:09.067Z,67.13
2019-04-10T15:08:36.585Z,66.63
2019-04-10T15:13:40.339Z,66.15
2019-04-10T15:16:09.478Z,66.02
2019-04-10T15:18:37.844Z,66.94
2019-04-10T15:21:07.037Z,67.28
2019-04-10T15:23:35.859Z,66.81
2019-04-10T15:28:37.772Z,66.89
2019-04-10T15:31:06.848Z,67.58
2019-04-10T15:33:35.232Z,68.12
2019-04-10T15:36:03.907Z,68.55
2019-04-10T15:38:31.295Z,68.84
2019-04-10T15:41:00.815Z,68.71
2019-04-10T15:43:28.031Z,69.13
2019-04-10T15:48:30.794Z,68.88
2019-04-10T15:53:34.427Z,69.79
2019-04-10T15:56:01.754Z,70.00
2019-04-10T15:58:31.095Z,69.70
2019-04-10T16:06:08.144Z,70.22
2019-04-10T16:08:36.474Z,71.15
2019-04-10T16:11:06.028Z,70.43
2019-04-10T16:13:36.659Z,71.77
2019-04-10T16:18:57.473Z,71.32
2019-04-10T16:21:26.956Z,71.45
2019-04-10T16:23:56.262Z,72.01
2019-04-10T16:26:23.800Z,72.33
2019-04-10T16:28:52.149Z,72.62
2019-04-10T16:31:21.534Z,73.45
2019-04-10T16:33:50.499Z,74.30
2019-04-10T16:36:19.282Z,76.82
2019-04-10T16:38:47.055Z,76.72
2019-04-10T16:43:49.308Z,78.69
2019-04-10T16:46:17.755Z,79.97
2019-04-10T16:48:46.265Z,81.82
2019-04-10T16:56:23.873Z,82.08
2019-04-10T16:58:52.264Z,81.12
2019-04-10T17:01:20.612Z,81.56
2019-04-10T17:03:49.743Z,85.53
2019-04-10T17:06:17.807Z,86.36
2019-04-10T17:11:23.013Z,85.27
2019-04-10T17:13:50.899Z,84.57
2019-04-10T17:16:19.822Z,84.86
2019-04-10T17:18:47.591Z,87.02
2019-04-10T17:21:15.557Z,89.09
2019-04-10T17:23:44.866Z,86.06
2019-04-10T17:26:12.937Z,85.67
2019-04-10T17:28:40.886Z,84.99
2019-04-10T17:31:09.245Z,86.28
2019-04-10T17:33:38.406Z,87.10
2019-04-10T17:36:05.984Z,90.84
2019-04-10T17:41:09.179Z,92.58
2019-04-10T17:43:38.091Z,88.52
2019-04-10T17:46:07.038Z,94.24
2019-04-10T17:48:37.246Z,90.93
2019-04-10T17:51:03.640Z,93.21
2019-04-10T17:53:31.645Z,94.69
2019-04-10T17:56:00.167Z,95.62
2019-04-10T18:01:03.836Z,95.21
2019-04-10T18:06:05.336Z,93.81
2019-04-10T18:08:34.649Z,93.94
2019-04-10T18:13:36.386Z,92.02
2019-04-10T18:18:40.065Z,92.96
2019-04-10T18:23:41.893Z,93.93
2019-04-10T18:28:44.251Z,96.53
2019-04-10T18:31:12.597Z,97.31
2019-04-10T18:33:41.060Z,99.28
2019-04-10T18:36:09.414Z,100.00
2019-04-10T18:38:37.845Z,100.00
2019-04-10T18:41:08.569Z,100.00
2019-04-10T18:46:14.333Z,100.00
2019-04-10T18:48:38.901Z,100.00
2019-04-10T18:51:09.153Z,100.00
2019-04-10T18:53:35.214Z,100.00
2019-04-10T18:56:03.490Z,100.00
2019-04-10T18:58:34.230Z,100.00
2019-04-10T19:03:50.257Z,100.00
2019-04-10T19:09:18.396Z,99.99
2019-04-10T19:14:16.503Z,99.62
2019-04-10T19:21:53.782Z,99.20
2019-04-10T19:24:21.914Z,100.00
2019-04-10T19:26:50.078Z,100.00
2019-04-10T19:29:18.493Z,100.00
2019-04-10T19:34:21.218Z,99.00
2019-04-10T19:39:24.446Z,100.00
2019-04-10T19:41:53.853Z,100.00
2019-04-10T19:44:21.452Z,100.00
2019-04-10T19:46:50.163Z,100.00
2019-04-10T19:49:18.330Z,100.00
2019-04-10T19:51:46.759Z,100.00
2019-04-10T19:54:15.726Z,100.00
2019-04-10T19:59:18.684Z,100.00
2019-04-10T20:01:46.481Z,100.00
2019-04-10T20:04:14.536Z,100.00
2019-04-10T20:06:42.802Z,100.00
2019-04-10T20:09:11.123Z,100.00
2019-04-10T20:11:45.293Z,100.00
2019-04-10T20:14:08.946Z,100.00
2019-04-10T20:16:39.506Z,100.00
2019-04-10T20:19:07.549Z,100.00
2019-04-10T20:24:10.396Z,100.00
2019-04-10T20:26:39.118Z,100.00
2019-04-10T20:29:06.990Z,100.00
2019-04-10T20:31:35.332Z,100.00
2019-04-10T20:36:38.906Z,100.00
2019-04-10T20:39:07.625Z,100.00
2019-04-10T20:41:45.961Z,100.00
2019-04-10T20:44:03.759Z,100.00
2019-04-10T20:46:31.777Z,100.00
2019-04-10T20:49:01.308Z,100.00
2019-04-10T20:51:30.484Z,100.00
2019-04-10T20:53:58.136Z,100.00
2019-04-10T20:56:26.576Z,100.00
2019-04-10T20:58:56.000Z,100.00
2019-04-10T21:01:24.559Z,100.00
2019-04-10T21:03:52.698Z,100.00
2019-04-10T21:06:21.089Z,100.00
2019-04-10T21:08:50.326Z,100.00
2019-04-10T21:11:17.757Z,100.00
2019-04-10T21:13:46.649Z,100.00
2019-04-10T21:16:15.581Z,100.00
2019-04-10T21:18:44.204Z,100.00
2019-04-10T21:23:46.491Z,100.00
2019-04-10T21:26:14.421Z,100.00
2019-04-10T21:28:43.687Z,100.00
2019-04-10T21:31:16.064Z,100.00
2019-04-10T21:36:39.209Z,100.00
2019-04-10T21:39:07.346Z,100.00
2019-04-10T21:41:35.466Z,100.00
2019-04-10T21:46:38.873Z,100.00
2019-04-10T21:51:44.787Z,100.00
2019-04-10T21:54:12.209Z,100.00
2019-04-10T21:56:40.930Z,100.00
2019-04-10T21:59:09.072Z,100.00
2019-04-10T22:01:38.088Z,100.00
2019-04-10T22:04:06.291Z,100.00
2019-04-10T22:06:45.869Z,100.00
2019-04-10T22:09:21.032Z,100.00
2019-04-10T22:11:50.617Z,100.00
2019-04-10T22:14:19.222Z,100.00
2019-04-10T22:16:48.199Z,100.00
2019-04-10T22:19:16.742Z,100.00
2019-04-10T22:21:44.119Z,100.00
2019-04-10T22:24:13.580Z,100.00
2019-04-10T22:26:40.855Z,100.00
2019-04-10T22:29:10.659Z,100.00
2019-04-10T22:31:37.724Z,100.00
2019-04-10T22:34:07.338Z,100.00
2019-04-10T22:36:35.512Z,100.00
2019-04-10T22:39:04.725Z,100.00
2019-04-10T22:41:33.811Z,100.00
2019-04-10T22:44:01.204Z,100.00
2019-04-10T22:46:30.091Z,100.00
2019-04-10T22:48:58.427Z,100.00
2019-04-10T22:51:27.084Z,100.00
2019-04-10T22:56:31.497Z,100.00
2019-04-10T22:58:59.667Z,100.00
2019-04-10T23:01:27.217Z,100.00
2019-04-10T23:06:29.812Z,100.00
2019-04-10T23:08:58.149Z,100.00
2019-04-10T23:14:04.599Z,100.00
2019-04-10T23:16:32.443Z,100.00
2019-04-10T23:19:01.558Z,100.00
2019-04-10T23:21:29.025Z,100.00
2019-04-10T23:23:57.368Z,100.00
2019-04-10T23:26:25.959Z,100.00
2019-04-10T23:28:54.062Z,100.00
2019-04-10T23:31:23.654Z,100.00
2019-04-10T23:33:50.976Z,100.00
2019-04-10T23:36:20.235Z,100.00
2019-04-10T23:38:47.957Z,100.00
2019-04-10T23:41:17.758Z,100.00
2019-04-10T23:43:46.132Z,100.00
2019-04-10T23:46:14.579Z,100.00
2019-04-10T23:48:42.475Z,100.00
2019-04-10T23:51:12.669Z,100.00
2019-04-10T23:53:40.471Z,100.00
2019-04-10T23:56:08.496Z,100.00
2019-04-10T23:58:38.030Z,100.00
